Time;durP1;ratioP1;P1;durP2;ratioP2;P2;SDS_P1;SDS_P2;PMS_P1;PMS_P2;Temp;Humidity;BMP_temperature;BMP_pressure;BME280_temperature;BME280_humidity;BME280_pressure;Samples;Min_cycle;Max_cycle;Signal;HPM_P1;HPM_P2
2022/08/05 00:02:13;;;;;;;10.80;4.53;;;;;;;19.38;88.18;99481.58;1726952;83;21152;-79
2022/08/05 00:04:40;;;;;;;12.68;4.90;;;;;;;19.35;88.36;99483.13;1726686;83;21036;-79
2022/08/05 00:07:07;;;;;;;6.15;4.50;;;;;;;19.33;88.41;99479.73;1726950;81;21631;-79
2022/08/05 00:09:33;;;;;;;4.97;4.55;;;;;;;19.31;88.45;99479.83;1727272;81;21100;-79
2022/08/05 00:12:00;;;;;;;10.58;4.45;;;;;;;19.28;88.64;99475.59;1748639;81;21048;-80
2022/08/05 00:14:26;;;;;;;6.58;4.62;;;;;;;19.27;88.67;99475.20;1748404;81;21147;-79
2022/08/05 00:16:53;;;;;;;6.95;4.47;;;;;;;19.26;88.65;99476.15;1748044;81;21079;-78
2022/08/05 00:19:21;;;;;;;17.07;4.42;;;;;;;19.27;88.72;99483.20;1747708;82;21573;-79
2022/08/05 00:21:47;;;;;;;8.73;4.15;;;;;;;19.29;88.72;99485.27;1748906;81;21585;-79
2022/08/05 00:24:14;;;;;;;9.73;4.33;;;;;;;19.27;88.70;99483.20;1748258;82;21153;-79
2022/08/05 00:26:40;;;;;;;4.90;4.42;;;;;;;19.27;88.69;99473.87;1747711;82;21341;-79
2022/08/05 00:29:07;;;;;;;10.00;4.35;;;;;;;19.27;88.63;99481.88;1748381;81;21075;-79
2022/08/05 00:31:33;;;;;;;6.53;4.45;;;;;;;19.28;88.67;99488.05;1748276;81;21043;-79
2022/08/05 00:34:00;;;;;;;5.20;4.80;;;;;;;19.28;88.96;99482.25;1748180;81;20999;-79
2022/08/05 00:36:26;;;;;;;10.35;5.22;;;;;;;19.28;89.31;99485.38;1749167;81;21079;-80
2022/08/05 00:38:53;;;;;;;6.08;4.70;;;;;;;19.27;89.47;99475.20;1747978;82;21174;-80
2022/08/05 00:41:30;;;;;;;5.33;4.40;;;;;;;19.26;89.72;99478.82;1748321;82;21120;-79
2022/08/05 00:43:56;;;;;;;5.90;5.30;;;;;;;19.28;89.90;99470.70;1747641;82;21012;-79
2022/08/05 00:46:23;;;;;;;6.80;4.90;;;;;;;19.29;90.19;99466.59;1748634;81;21074;-80
2022/08/05 00:48:50;;;;;;;12.05;5.55;;;;;;;19.28;90.61;99459.58;1738306;81;21127;-80
2022/08/05 00:51:19;;;;;;;5.20;4.75;;;;;;;19.26;90.89;99456.14;1737450;82;21806;-79
2022/08/05 00:53:46;;;;;;;5.17;4.78;;;;;;;19.27;91.12;99459.20;1712563;82;21002;-79
2022/08/05 00:56:15;;;;;;;5.00;4.60;;;;;;;19.26;91.17;99460.14;1743047;82;21048;-79
2022/08/05 00:58:42;;;;;;;7.30;5.08;;;;;;;19.25;91.21;99461.13;1743263;82;22203;-78
2022/08/05 01:01:10;;;;;;;5.95;4.95;;;;;;;19.26;91.24;99462.81;1743239;82;21229;-80
2022/08/05 01:03:38;;;;;;;4.85;4.30;;;;;;;19.25;91.23;99464.28;1742972;82;21136;-79
2022/08/05 01:06:05;;;;;;;10.93;5.67;;;;;;;19.26;91.12;99461.48;1743010;82;21126;-78
2022/08/05 01:08:33;;;;;;;5.58;5.05;;;;;;;19.27;91.29;99463.69;1743120;82;21067;-79
2022/08/05 01:11:20;;;;;;;5.20;4.78;;;;;;;19.25;91.37;99465.13;1739913;82;21043;-79
2022/08/05 01:14:21;;;;;;;5.37;4.87;;;;;;;19.24;91.29;99459.41;1736923;82;20953;-79
2022/08/05 01:16:55;;;;;;;7.35;5.03;;;;;;;19.24;91.13;99454.08;1736979;82;21141;-79
2022/08/05 01:19:42;;;;;;;5.43;4.70;;;;;;;19.24;91.12;99452.74;1737270;82;21059;-79
2022/08/05 01:22:34;;;;;;;5.35;4.90;;;;;;;19.22;91.08;99453.34;1736923;82;22024;-79
2022/08/05 01:25:09;;;;;;;5.42;4.92;;;;;;;19.20;91.06;99456.61;1736958;82;21083;-77
2022/08/05 01:28:32;;;;;;;4.70;4.30;;;;;;;19.18;90.96;99450.53;1736853;82;21047;-79
2022/08/05 01:31:13;;;;;;;9.43;5.33;;;;;;;19.16;90.63;99452.92;1735287;82;21083;-78
2022/08/05 01:33:51;;;;;;;8.25;5.10;;;;;;;19.13;90.57;99456.64;1707692;84;21005;-79
2022/08/05 01:36:18;;;;;;;8.30;5.35;;;;;;;19.10;90.53;99462.23;1707983;83;21062;-79
2022/08/05 01:38:46;;;;;;;9.73;5.00;;;;;;;19.08;90.54;99445.45;1707645;84;21484;-79
2022/08/05 01:41:13;;;;;;;6.80;5.05;;;;;;;19.08;90.48;99445.45;1708259;83;20983;-79
2022/08/05 01:43:40;;;;;;;7.20;5.30;;;;;;;19.04;90.42;99434.65;1707917;84;21105;-79
2022/08/05 01:46:06;;;;;;;9.83;4.70;;;;;;;19.01;90.51;99438.86;1708560;83;21548;-79
2022/08/05 01:48:34;;;;;;;5.67;4.72;;;;;;;19.00;90.32;99442.52;1707164;84;21137;-79
2022/08/05 01:51:00;;;;;;;5.12;4.40;;;;;;;18.98;90.16;99433.28;1707908;83;21070;-79
2022/08/05 01:53:27;;;;;;;7.25;4.60;;;;;;;18.94;90.24;99433.95;1707996;83;21043;-78
2022/08/05 01:55:55;;;;;;;11.75;4.25;;;;;;;18.92;90.16;99434.55;1707489;84;21165;-78
2022/08/05 01:58:22;;;;;;;6.47;4.60;;;;;;;18.91;90.02;99438.20;1707835;83;21079;-79
2022/08/05 02:00:50;;;;;;;11.12;5.03;;;;;;;18.90;89.72;99436.48;1708249;83;21063;-80
2022/08/05 02:03:32;;;;;;;6.78;4.25;;;;;;;18.87;89.36;99434.02;1707734;84;21074;-78
2022/08/05 02:06:01;;;;;;;8.75;4.70;;;;;;;18.83;89.04;99440.55;1707894;83;21581;-79
2022/08/05 02:08:27;;;;;;;15.15;5.33;;;;;;;18.77;89.03;99448.92;1707642;83;21165;-79
2022/08/05 02:10:58;;;;;;;11.43;4.62;;;;;;;18.77;89.19;99441.42;1708988;83;21115;-79
2022/08/05 02:13:34;;;;;;;9.48;4.83;;;;;;;18.75;89.29;99448.19;1713112;83;21084;-80
2022/08/05 02:16:09;;;;;;;10.72;4.97;;;;;;;18.73;89.36;99452.78;1712801;83;21117;-79
2022/08/05 02:18:43;;;;;;;7.58;4.85;;;;;;;18.71;89.72;99450.67;1704797;83;20996;-78
2022/08/05 02:21:18;;;;;;;;;;;;;;;18.71;89.94;99453.34;1715808;83;21176;-80
2022/08/05 02:23:52;;;;;;;7.60;5.20;;;;;;;18.73;90.17;99452.78;1713338;82;20182;-79
2022/08/05 02:26:23;;;;;;;6.75;5.17;;;;;;;18.72;90.34;99453.73;1713363;83;21022;-78
2022/08/05 02:28:50;;;;;;;5.55;5.05;;;;;;;18.73;90.75;99455.45;1713171;83;21137;-78
2022/08/05 02:31:21;;;;;;;8.08;5.85;;;;;;;18.75;91.23;99461.02;1713074;83;21034;-80
2022/08/05 02:33:51;;;;;;;6.30;5.70;;;;;;;18.77;91.43;99460.92;1712996;83;21109;-78
2022/08/05 02:36:19;;;;;;;5.85;5.42;;;;;;;18.81;91.94;99471.77;1711757;83;21062;-81
2022/08/05 02:38:47;;;;;;;5.58;5.17;;;;;;;18.82;92.33;99469.45;1713172;83;21097;-80
2022/08/05 02:41:15;;;;;;;6.40;5.10;;;;;;;18.84;92.73;99462.72;1713078;83;21066;-78
2022/08/05 02:43:41;;;;;;;6.65;5.10;;;;;;;18.86;92.92;99472.33;1713050;83;21070;-78
2022/08/05 02:46:08;;;;;;;7.00;5.28;;;;;;;18.87;93.03;99470.50;1719802;82;21101;-78
2022/08/05 02:48:35;;;;;;;5.78;5.28;;;;;;;18.88;93.21;99475.73;1740141;81;21578;-79
2022/08/05 02:51:02;;;;;;;5.78;5.25;;;;;;;18.88;93.31;99479.73;1665056;82;21566;-79
2022/08/05 02:53:29;;;;;;;5.78;5.28;;;;;;;18.90;93.56;99476.47;1740264;82;21111;-79
2022/08/05 02:55:56;;;;;;;5.80;5.20;;;;;;;18.91;93.53;99479.52;1711327;82;21051;-79
2022/08/05 02:58:22;;;;;;;7.12;5.60;;;;;;;18.93;93.36;99473.59;1740294;81;21508;-81
2022/08/05 03:00:49;;;;;;;7.87;5.15;;;;;;;18.92;93.44;99473.20;1740238;82;21103;-79
2022/08/05 03:03:19;;;;;;;7.08;5.40;;;;;;;18.93;93.45;99468.27;1740026;82;21713;-78
2022/08/05 03:05:47;;;;;;;6.05;5.50;;;;;;;18.94;93.46;99469.10;1740306;82;21726;-79
2022/08/05 03:08:14;;;;;;;6.78;5.60;;;;;;;18.96;93.58;99469.00;1739721;82;21099;-79
2022/08/05 03:10:44;;;;;;;8.05;5.53;;;;;;;18.95;93.60;99468.16;1740955;81;21135;-79
2022/08/05 03:13:15;;;;;;;6.12;5.62;;;;;;;18.94;93.50;99464.61;1748157;81;21584;-82
2022/08/05 03:15:44;;;;;;;11.73;5.92;;;;;;;18.98;93.55;99460.41;1747891;82;21163;-81
2022/08/05 03:18:12;;;;;;;6.40;5.47;;;;;;;18.99;93.55;99466.13;1748733;81;21108;-81
2022/08/05 03:20:39;;;;;;;6.40;5.85;;;;;;;18.99;93.49;99454.97;1736753;82;21571;-81
2022/08/05 03:23:07;;;;;;;8.20;6.00;;;;;;;19.00;93.29;99462.51;1737221;82;21185;-81
2022/08/05 03:25:36;;;;;;;5.92;5.33;;;;;;;19.02;93.29;99464.09;1729961;82;21606;-83
2022/08/05 03:28:04;;;;;;;9.75;6.00;;;;;;;19.03;93.35;99470.27;1730187;82;21159;-79
2022/08/05 03:30:31;;;;;;;6.60;6.00;;;;;;;19.04;93.31;99463.98;1730036;82;21071;-79
2022/08/05 03:33:00;;;;;;;6.12;5.60;;;;;;;19.05;93.29;99463.03;1743814;82;21031;-79
2022/08/05 03:35:27;;;;;;;6.12;5.58;;;;;;;19.05;93.26;99466.55;1742998;82;21151;-78
2022/08/05 03:37:58;;;;;;;6.25;5.65;;;;;;;19.06;93.32;99466.05;1743296;82;21075;-79
2022/08/05 03:40:25;;;;;;;7.83;5.78;;;;;;;19.06;93.34;99462.05;1743490;82;21637;-80
2022/08/05 03:42:52;;;;;;;6.97;6.37;;;;;;;19.08;93.32;99461.00;1730261;82;21068;-79
2022/08/05 03:45:19;;;;;;;9.85;6.22;;;;;;;19.10;93.29;99463.06;1743419;82;21091;-79
2022/08/05 03:47:45;;;;;;;6.62;5.87;;;;;;;19.12;93.27;99470.96;1730403;82;21124;-79
2022/08/05 03:50:12;;;;;;;7.72;5.72;;;;;;;19.14;93.42;99470.36;1729905;82;21079;-81
2022/08/05 03:52:46;;;;;;;7.42;6.22;;;;;;;19.14;93.09;99470.36;1743765;82;21601;-81
2022/08/05 03:55:18;;;;;;;7.03;5.97;;;;;;;19.17;93.04;99473.31;1727392;82;21532;-80
2022/08/05 03:57:44;;;;;;;9.45;6.35;;;;;;;19.20;93.05;99472.61;1743751;82;21617;-80
2022/08/05 04:00:13;;;;;;;6.60;6.00;;;;;;;19.23;93.22;99476.86;1730507;82;21092;-79
2022/08/05 04:02:42;;;;;;;10.48;6.58;;;;;;;19.21;93.20;99472.96;1743728;82;21066;-80
2022/08/05 04:05:09;;;;;;;6.92;6.10;;;;;;;19.23;93.15;99469.73;1730473;82;21055;-78
2022/08/05 04:07:38;;;;;;;6.83;5.92;;;;;;;19.24;93.05;99470.57;1743503;82;21450;-78
2022/08/05 04:10:05;;;;;;;7.42;6.75;;;;;;;19.26;93.00;99473.97;1730131;82;21167;-79
2022/08/05 04:12:32;;;;;;;6.85;6.15;;;;;;;19.23;93.06;99472.40;1730310;82;21789;-79
2022/08/05 04:14:59;;;;;;;9.30;7.20;;;;;;;19.20;93.07;99469.94;1735448;82;21088;-79
2022/08/05 04:17:26;;;;;;;6.85;6.12;;;;;;;19.22;92.97;99462.67;1743517;82;21638;-79
2022/08/05 04:19:52;;;;;;;8.00;7.12;;;;;;;19.25;92.86;99466.46;1746736;82;21559;-79
2022/08/05 04:22:18;;;;;;;7.33;6.62;;;;;;;19.28;92.94;99472.92;1730532;82;21060;-79
2022/08/05 04:24:45;;;;;;;6.75;6.22;;;;;;;19.29;92.69;99478.61;1730124;82;21106;-78
2022/08/05 04:27:12;;;;;;;6.92;6.22;;;;;;;19.30;92.59;99473.66;1743528;82;21134;-80
2022/08/05 04:29:40;;;;;;;7.03;6.25;;;;;;;19.33;92.53;99471.23;1743769;82;21082;-79
2022/08/05 04:32:07;;;;;;;15.72;7.00;;;;;;;19.35;92.39;99470.66;1730107;82;21038;-76
2022/08/05 04:34:34;;;;;;;9.88;7.20;;;;;;;19.37;92.49;99479.89;1743379;82;21051;-78
2022/08/05 04:37:01;;;;;;;7.58;6.12;;;;;;;19.36;92.73;99471.50;1743505;82;21751;-78
2022/08/05 04:39:28;;;;;;;6.80;6.20;;;;;;;19.37;92.91;99475.89;1743529;82;21586;-79
2022/08/05 04:41:54;;;;;;;13.95;5.30;;;;;;;19.39;92.95;99469.95;1743817;82;21135;-78
2022/08/05 04:44:21;;;;;;;6.60;5.92;;;;;;;19.41;92.98;99476.03;1730017;82;21416;-79
2022/08/05 04:46:47;;;;;;;6.83;6.03;;;;;;;19.42;92.97;99472.41;1743766;82;21063;-78
2022/08/05 04:49:14;;;;;;;7.53;5.92;;;;;;;19.44;92.96;99471.81;1743416;82;21837;-78
2022/08/05 04:51:41;;;;;;;6.55;5.85;;;;;;;19.46;92.99;99472.55;1744458;82;21076;-79
2022/08/05 04:54:08;;;;;;;6.97;6.22;;;;;;;19.49;92.88;99470.99;1736786;81;21650;-80
2022/08/05 04:56:35;;;;;;;7.05;6.00;;;;;;;19.51;92.88;99473.55;1748313;82;21099;-80
2022/08/05 04:59:01;;;;;;;8.88;6.40;;;;;;;19.53;92.80;99479.13;1737221;82;21072;-79
2022/08/05 05:01:28;;;;;;;6.58;5.83;;;;;;;19.53;92.59;99476.47;1747325;82;21156;-80
2022/08/05 05:03:54;;;;;;;6.60;6.10;;;;;;;19.55;92.49;99474.56;1737281;82;21117;-78
2022/08/05 05:06:21;;;;;;;6.28;5.78;;;;;;;19.53;92.42;99473.80;1737377;82;21064;-79
2022/08/05 05:08:47;;;;;;;7.90;5.80;;;;;;;19.53;92.42;99472.46;1748113;80;21079;-81
2022/08/05 05:11:14;;;;;;;6.22;5.40;;;;;;;19.52;92.27;99476.58;1748150;82;21111;-81
2022/08/05 05:13:40;;;;;;;5.60;5.20;;;;;;;19.50;92.26;99466.01;1719957;83;21164;-78
2022/08/05 05:16:07;;;;;;;6.90;5.92;;;;;;;19.48;92.29;99466.61;1715815;82;21675;-79
2022/08/05 05:18:34;;;;;;;6.72;6.08;;;;;;;19.44;92.45;99468.66;1692874;84;21125;-78
2022/08/05 05:21:02;;;;;;;7.17;6.00;;;;;;;19.42;92.58;99473.74;1694522;83;21051;-79
2022/08/05 05:23:28;;;;;;;5.90;5.30;;;;;;;19.45;92.74;99480.16;1693804;84;21149;-79
2022/08/05 05:25:55;;;;;;;7.53;5.58;;;;;;;19.47;92.79;99482.27;1693001;84;21889;-79
2022/08/05 05:28:21;;;;;;;7.42;5.58;;;;;;;19.47;92.82;99479.60;1692945;84;21149;-79
2022/08/05 05:30:48;;;;;;;5.70;5.30;;;;;;;19.45;92.80;99479.70;1693505;84;21054;-79
2022/08/05 05:33:14;;;;;;;5.50;5.10;;;;;;;19.46;92.75;99476.55;1692742;84;21026;-79
2022/08/05 05:35:40;;;;;;;5.80;5.30;;;;;;;19.49;92.74;99476.33;1693579;83;21117;-79
2022/08/05 05:38:07;;;;;;;5.95;5.33;;;;;;;19.50;92.73;99479.35;1693599;84;21175;-79
2022/08/05 05:40:34;;;;;;;6.33;5.87;;;;;;;19.53;92.76;99491.64;1693297;84;21391;-79
2022/08/05 05:43:00;;;;;;;7.08;6.37;;;;;;;19.55;92.79;99487.91;1694232;84;21641;-79
2022/08/05 05:45:27;;;;;;;6.78;6.17;;;;;;;19.58;92.53;99490.33;1693410;83;21065;-80
2022/08/05 05:47:53;;;;;;;6.80;6.25;;;;;;;19.58;92.65;99486.81;1692985;83;21030;-79
2022/08/05 05:50:20;;;;;;;7.85;6.67;;;;;;;19.57;92.79;99491.31;1692884;84;21057;-78
2022/08/05 05:52:47;;;;;;;7.47;6.12;;;;;;;19.56;92.98;99490.92;1694902;83;21091;-80
2022/08/05 05:55:15;;;;;;;6.20;5.70;;;;;;;19.59;93.00;99500.05;1693350;83;21565;-80
2022/08/05 05:57:43;;;;;;;6.40;5.87;;;;;;;19.63;93.01;99497.52;1693246;84;21600;-80
2022/08/05 06:00:18;;;;;;;7.42;6.30;;;;;;;19.66;93.03;99489.78;1693201;84;21561;-78
2022/08/05 06:02:45;;;;;;;;;;;;;;;19.66;93.03;99499.13;1695584;84;21057;-79
2022/08/05 06:05:13;;;;;;;6.90;6.28;;;;;;;19.68;92.99;99507.87;1693392;83;20263;-79
2022/08/05 06:07:41;;;;;;;7.33;6.33;;;;;;;19.71;93.01;99503.64;1692911;84;21715;-80
2022/08/05 06:10:09;;;;;;;9.05;6.78;;;;;;;19.70;92.82;99504.59;1693376;83;22068;-79
2022/08/05 06:12:36;;;;;;;6.85;6.25;;;;;;;19.68;92.83;99500.70;1710458;81;21147;-79
2022/08/05 06:15:03;;;;;;;6.78;6.17;;;;;;;19.66;92.86;99503.13;1730963;82;21145;-79
2022/08/05 06:17:30;;;;;;;9.03;6.17;;;;;;;19.68;92.87;99509.20;1730865;82;21115;-81
2022/08/05 06:19:57;;;;;;;8.08;6.50;;;;;;;19.72;92.78;99507.16;1730719;82;21151;-79
2022/08/05 06:22:28;;;;;;;8.58;7.30;;;;;;;19.73;92.71;99508.38;1730820;82;21090;-80
2022/08/05 06:24:54;;;;;;;10.60;7.78;;;;;;;19.74;92.71;99509.26;1730494;82;21578;-80
2022/08/05 06:27:20;;;;;;;14.47;8.45;;;;;;;19.74;92.78;99497.25;1730801;82;21587;-80
2022/08/05 06:29:47;;;;;;;9.93;7.45;;;;;;;19.76;92.74;99499.34;1730734;82;21057;-79
2022/08/05 06:32:13;;;;;;;12.30;8.50;;;;;;;19.79;92.75;99497.80;1730760;82;21293;-81
2022/08/05 06:34:40;;;;;;;13.95;8.25;;;;;;;19.82;93.06;99494.41;1730743;82;21082;-81
2022/08/05 06:37:07;;;;;;;12.13;8.85;;;;;;;19.90;93.21;99490.31;1730999;82;21645;-80
2022/08/05 06:39:33;;;;;;;11.63;8.48;;;;;;;19.99;93.48;99494.50;1730830;82;21103;-80
2022/08/05 06:42:05;;;;;;;12.15;9.08;;;;;;;20.09;93.60;99494.67;1730841;82;21087;-78
2022/08/05 06:44:30;;;;;;;9.90;8.90;;;;;;;20.20;93.26;99496.53;1730471;82;21114;-79
2022/08/05 06:46:57;;;;;;;9.40;8.50;;;;;;;20.29;93.01;99503.87;1731011;82;21145;-81
2022/08/05 06:49:24;;;;;;;9.25;8.33;;;;;;;20.37;92.49;99504.11;1730757;82;21135;-80
2022/08/05 06:51:51;;;;;;;10.90;8.98;;;;;;;20.46;91.96;99503.05;1730645;82;21146;-80
2022/08/05 06:54:17;;;;;;;10.20;8.78;;;;;;;20.55;91.80;99500.53;1730887;82;21000;-77
2022/08/05 06:56:44;;;;;;;10.18;9.08;;;;;;;20.65;91.45;99506.56;1730690;82;21513;-78
2022/08/05 06:59:13;;;;;;;12.98;9.75;;;;;;;20.74;91.07;99502.67;1729089;82;21088;-81
2022/08/05 07:01:39;;;;;;;9.73;8.83;;;;;;;20.84;90.84;99505.98;1730822;82;21182;-80
2022/08/05 07:04:06;;;;;;;19.15;9.15;;;;;;;20.93;90.64;99505.25;1730727;82;21766;-80
2022/08/05 07:06:33;;;;;;;10.95;9.68;;;;;;;21.02;90.12;99513.91;1730459;82;20984;-79
2022/08/05 07:09:00;;;;;;;10.53;9.45;;;;;;;21.07;89.54;99515.73;1725576;83;21118;-79
2022/08/05 07:11:29;;;;;;;9.65;8.50;;;;;;;21.10;88.91;99523.53;1725678;83;21459;-80
2022/08/05 07:16:48;;;;;;;11.45;10.35;;;;;;;21.17;88.27;99524.39;1737887;82;21133;-79
2022/08/05 07:19:17;;;;;;;14.15;10.08;;;;;;;21.15;88.01;99526.70;1737381;81;21095;-80
2022/08/05 07:21:48;;;;;;;11.90;10.30;;;;;;;21.16;87.91;99519.51;1736214;82;21528;-79
2022/08/05 07:24:16;;;;;;;16.02;11.35;;;;;;;21.20;87.63;99526.80;1736399;82;20993;-80
2022/08/05 07:26:43;;;;;;;11.78;10.68;;;;;;;21.20;87.30;99528.14;1737943;82;21008;-80
2022/08/05 07:29:10;;;;;;;11.78;10.50;;;;;;;21.15;87.29;99526.70;1736910;82;21610;-81
2022/08/05 07:31:37;;;;;;;13.68;11.83;;;;;;;21.17;87.37;99523.90;1737299;81;21067;-79
2022/08/05 07:34:04;;;;;;;15.10;10.53;;;;;;;21.21;87.57;99523.17;1736843;82;32590;-80
2022/08/05 07:36:32;;;;;;;13.80;11.93;;;;;;;21.23;87.51;99519.88;1738310;82;21103;-80
2022/08/05 07:39:00;;;;;;;16.95;12.05;;;;;;;21.27;87.45;99525.38;1739218;82;21139;-81
2022/08/05 07:41:27;;;;;;;15.65;12.47;;;;;;;21.30;87.20;99521.09;1736213;82;21094;-80
2022/08/05 07:43:54;;;;;;;14.83;11.10;;;;;;;21.33;87.20;99524.86;1736271;81;21003;-80
2022/08/05 07:46:21;;;;;;;12.33;11.00;;;;;;;21.37;86.88;99528.14;1738079;81;21077;-79
2022/08/05 07:48:47;;;;;;;19.57;12.28;;;;;;;21.38;86.50;99528.52;1737333;81;21595;-81
2022/08/05 07:51:14;;;;;;;15.32;11.65;;;;;;;21.42;86.40;99530.84;1736110;82;20972;-80
2022/08/05 07:53:42;;;;;;;14.07;10.08;;;;;;;21.48;86.38;99526.34;1736561;82;21124;-81
2022/08/05 07:56:08;;;;;;;11.00;9.40;;;;;;;21.57;86.63;99527.92;1736961;82;21150;-79
2022/08/05 07:58:35;;;;;;;12.68;10.05;;;;;;;21.66;86.15;99524.52;1737473;81;21145;-80
2022/08/05 08:01:02;;;;;;;10.70;9.70;;;;;;;21.75;85.89;99531.80;1738078;82;21063;-78
2022/08/05 08:03:28;;;;;;;10.18;9.25;;;;;;;21.83;85.18;99525.83;1737445;81;21067;-80
2022/08/05 08:05:55;;;;;;;14.93;9.95;;;;;;;21.91;84.89;99519.86;1726125;82;21055;-78
2022/08/05 08:08:22;;;;;;;11.10;9.78;;;;;;;21.98;84.41;99523.73;1726075;82;21079;-80
2022/08/05 08:10:48;;;;;;;11.80;9.68;;;;;;;22.04;84.02;99525.42;1726616;82;21146;-81
2022/08/05 08:13:15;;;;;;;12.50;9.43;;;;;;;22.08;83.62;99528.20;1716491;82;21100;-80
2022/08/05 08:15:41;;;;;;;11.45;9.63;;;;;;;22.14;83.11;99524.17;1729470;82;21583;-79
2022/08/05 08:18:08;;;;;;;15.83;10.15;;;;;;;22.21;82.83;99521.34;1729753;82;21253;-79
2022/08/05 08:20:34;;;;;;;10.10;8.95;;;;;;;22.36;83.37;99525.08;1729322;82;21063;-79
2022/08/05 08:23:06;;;;;;;10.88;9.78;;;;;;;22.53;83.78;99529.89;1730647;82;21405;-80
2022/08/05 08:25:33;;;;;;;10.93;9.75;;;;;;;22.65;83.38;99528.50;1729554;82;21567;-80
2022/08/05 08:28:00;;;;;;;13.98;10.53;;;;;;;22.75;81.89;99532.94;1731011;82;21071;-79
2022/08/05 08:30:26;;;;;;;11.88;9.58;;;;;;;22.81;80.84;99535.58;1731697;82;21107;-78
2022/08/05 08:32:53;;;;;;;11.97;9.88;;;;;;;22.88;80.46;99527.85;1730699;82;21115;-79
2022/08/05 08:35:19;;;;;;;11.50;10.30;;;;;;;22.92;80.19;99532.83;1729158;82;21080;-80
2022/08/05 08:37:46;;;;;;;11.25;10.15;;;;;;;22.95;79.96;99529.05;1732324;82;22230;-81
2022/08/05 08:40:12;;;;;;;14.20;11.60;;;;;;;22.99;79.92;99531.31;1731101;82;21127;-80
2022/08/05 08:42:39;;;;;;;12.88;10.82;;;;;;;23.03;79.89;99527.03;1731730;82;21102;-79
2022/08/05 08:45:07;;;;;;;12.65;10.98;;;;;;;23.10;80.04;99526.88;1703077;83;20994;-79
2022/08/05 08:47:34;;;;;;;22.58;11.93;;;;;;;23.18;79.79;99531.09;1703084;83;21063;-80
2022/08/05 08:50:01;;;;;;;14.70;10.82;;;;;;;23.22;78.95;99527.17;1702824;83;21088;-80
2022/08/05 08:52:34;;;;;;;12.47;11.18;;;;;;;23.21;78.45;99532.67;1706115;84;21226;-80
2022/08/05 08:55:02;;;;;;;14.75;10.93;;;;;;;23.20;78.26;99539.89;1708133;83;21096;-78
2022/08/05 08:57:29;;;;;;;12.15;10.95;;;;;;;23.21;78.25;99536.20;1707745;84;21509;-79
2022/08/05 08:59:57;;;;;;;11.68;10.53;;;;;;;23.24;78.45;99543.15;1708084;83;21023;-79
2022/08/05 09:02:23;;;;;;;11.70;10.48;;;;;;;23.26;78.50;99546.04;1708219;84;21546;-80
2022/08/05 09:04:50;;;;;;;11.10;10.00;;;;;;;23.29;78.32;99544.44;1707925;83;21061;-81
2022/08/05 09:07:17;;;;;;;10.63;9.53;;;;;;;23.30;78.18;99543.46;1708033;84;21105;-79
2022/08/05 09:09:43;;;;;;;11.22;10.13;;;;;;;23.31;77.62;99550.52;1679594;83;21127;-78
2022/08/05 09:12:10;;;;;;;11.18;9.50;;;;;;;23.29;76.72;99544.94;1703473;83;21056;-80
2022/08/05 09:14:38;;;;;;;13.03;10.38;;;;;;;23.22;77.07;99547.30;1725950;81;21044;-81
2022/08/05 09:17:07;;;;;;;12.10;10.90;;;;;;;23.17;77.31;99549.54;1727983;82;21127;-80
2022/08/05 09:19:36;;;;;;;10.98;9.88;;;;;;;23.16;77.64;99549.17;1725271;82;21155;-79
2022/08/05 09:22:02;;;;;;;13.80;10.50;;;;;;;23.13;77.49;99554.80;1728585;82;20996;-79
2022/08/05 09:24:29;;;;;;;11.48;10.25;;;;;;;23.15;77.81;99555.54;1726351;82;21005;-80
2022/08/05 09:26:57;;;;;;;13.28;10.53;;;;;;;23.15;77.98;99558.23;1726972;82;21628;-79
2022/08/05 09:29:44;;;;;;;10.80;9.75;;;;;;;23.15;77.44;99555.04;1728527;82;21083;-81
2022/08/05 09:32:09;;;;;;;11.38;10.28;;;;;;;23.15;77.68;99554.20;1725907;82;22305;-79
2022/08/05 09:34:57;;;;;;;10.95;9.95;;;;;;;23.17;77.96;99558.94;1709506;83;21539;-80
2022/08/05 09:37:25;;;;;;;11.48;9.28;;;;;;;23.20;77.66;99555.98;1725715;82;21013;-80
2022/08/05 09:39:52;;;;;;;11.30;10.10;;;;;;;23.17;77.37;99562.45;1728541;82;21140;-80
2022/08/05 09:42:20;;;;;;;9.70;8.80;;;;;;;23.17;77.59;99557.59;1726327;82;21096;-80
2022/08/05 09:44:52;;;;;;;11.33;8.60;;;;;;;23.18;77.75;99560.14;1726768;82;21170;-81
2022/08/05 09:47:21;;;;;;;9.28;8.40;;;;;;;23.26;77.97;99556.78;1725395;82;21484;-79
2022/08/05 09:49:53;;;;;;;10.82;9.05;;;;;;;23.37;77.98;99558.04;1726643;82;21221;-80
2022/08/05 09:52:31;;;;;;;10.68;9.63;;;;;;;23.52;78.13;99556.35;1726054;82;21048;-81
2022/08/05 09:55:08;;;;;;;12.03;10.40;;;;;;;23.64;77.47;99560.63;1727806;82;21054;-81
2022/08/05 09:57:44;;;;;;;12.30;10.68;;;;;;;23.76;76.71;99560.53;1727144;82;21088;-79
2022/08/05 10:00:18;;;;;;;12.20;10.40;;;;;;;23.83;76.37;99560.37;1725486;82;21037;-79
2022/08/05 10:02:50;;;;;;;10.95;9.83;;;;;;;23.88;75.66;99568.86;1727553;82;21099;-79
2022/08/05 10:05:22;;;;;;;15.30;10.53;;;;;;;23.93;75.56;99562.58;1725654;82;20992;-81
2022/08/05 10:08:00;;;;;;;15.43;9.73;;;;;;;23.93;74.87;99562.08;1725591;82;21079;-79
2022/08/05 10:10:34;;;;;;;10.63;9.63;;;;;;;23.95;74.41;99568.66;1726407;82;21092;-79
2022/08/05 10:13:04;;;;;;;11.97;9.95;;;;;;;23.97;74.26;99572.05;1720913;82;21167;-79
2022/08/05 10:15:33;;;;;;;12.13;10.25;;;;;;;23.98;74.17;99565.70;1716697;82;21075;-80
2022/08/05 10:18:11;;;;;;;12.15;10.50;;;;;;;23.97;74.22;99563.98;1716694;83;20992;-79
2022/08/05 10:20:48;;;;;;;11.60;10.20;;;;;;;23.99;73.94;99566.07;1716860;82;21131;-79
2022/08/05 10:23:21;;;;;;;13.15;10.50;;;;;;;23.99;74.51;99563.38;1716695;82;22031;-78
2022/08/05 10:25:48;;;;;;;10.72;9.63;;;;;;;24.07;75.51;99561.33;1716722;82;21182;-81
2022/08/05 10:28:15;;;;;;;11.18;9.83;;;;;;;24.14;75.64;99561.63;1716745;82;21072;-79
2022/08/05 10:30:42;;;;;;;12.23;10.40;;;;;;;24.18;74.76;99565.75;1716634;83;21087;-79
2022/08/05 10:33:09;;;;;;;10.32;9.43;;;;;;;24.16;75.12;99569.92;1716580;82;20988;-79
2022/08/05 10:35:36;;;;;;;11.18;10.08;;;;;;;24.18;75.07;99568.44;1716594;83;21099;-79
2022/08/05 10:38:03;;;;;;;10.78;9.73;;;;;;;24.22;74.76;99575.22;1716935;82;21069;-79
2022/08/05 10:41:09;;;;;;;11.18;9.90;;;;;;;24.23;74.37;99575.59;1716501;82;21131;-82
2022/08/05 10:43:53;;;;;;;11.68;10.43;;;;;;;24.23;74.23;99579.63;1716461;82;21512;-79
2022/08/05 10:46:22;;;;;;;14.47;10.82;;;;;;;24.19;74.07;99570.99;1716724;83;21065;-79
2022/08/05 10:48:55;;;;;;;11.05;10.05;;;;;;;24.13;73.57;99579.60;1716388;83;21178;-78
2022/08/05 10:51:22;;;;;;;13.53;10.68;;;;;;;24.07;74.11;99574.30;1729312;82;21170;-81
2022/08/05 10:53:59;;;;;;;11.03;10.03;;;;;;;24.06;73.94;99571.23;1737370;82;21126;-79
2022/08/05 10:56:29;;;;;;;14.03;9.90;;;;;;;24.03;74.14;99571.52;1736979;82;21478;-79
2022/08/05 10:59:03;;;;;;;15.80;12.07;;;;;;;24.05;74.97;99569.53;1737443;82;21547;-82
2022/08/05 11:01:40;;;;;;;12.40;11.03;;;;;;;24.12;75.11;99572.52;1737406;82;21148;-80
2022/08/05 11:04:15;;;;;;;15.20;10.88;;;;;;;24.17;74.76;99570.25;1740391;82;20957;-75
2022/08/05 11:07:03;;;;;;;11.78;10.50;;;;;;;24.19;74.17;99568.77;1741107;82;21131;-78
2022/08/05 11:09:40;;;;;;;13.85;10.38;;;;;;;24.19;74.29;99570.12;1737116;82;20989;-80
2022/08/05 11:12:42;;;;;;;12.18;10.88;;;;;;;24.18;74.17;99569.28;1737278;81;21095;-81
2022/08/05 11:15:31;;;;;;;13.08;11.70;;;;;;;24.20;74.50;99571.83;1737161;82;21593;-80
2022/08/05 11:18:26;;;;;;;11.85;10.75;;;;;;;24.26;74.93;99564.06;1735595;82;21108;-81
2022/08/05 11:20:53;;;;;;;12.55;11.25;;;;;;;24.38;74.73;99564.77;1735332;81;21067;-85
2022/08/05 11:23:52;;;;;;;12.28;11.10;;;;;;;24.54;74.45;99556.63;1744285;82;21123;-82
2022/08/05 11:26:21;;;;;;;13.18;11.70;;;;;;;24.60;73.59;99549.38;1741435;82;21095;-84
2022/08/05 11:28:52;;;;;;;12.63;10.95;;;;;;;24.76;72.98;99556.86;1744782;82;21155;-82
2022/08/05 11:31:29;;;;;;;11.93;10.75;;;;;;;24.91;73.85;99555.92;1743710;82;21636;-83
2022/08/05 11:34:02;;;;;;;14.58;11.05;;;;;;;25.07;73.20;99562.91;1744182;81;22057;-80
2022/08/05 11:36:46;;;;;;;12.35;10.75;;;;;;;25.17;72.55;99562.38;1742440;82;21029;-83
2022/08/05 11:39:15;;;;;;;12.88;10.70;;;;;;;25.28;72.08;99559.19;1743239;82;21114;-82
2022/08/05 11:41:45;;;;;;;12.33;11.03;;;;;;;25.35;71.44;99553.56;1744369;82;21179;-82